sensor_id;sensor_type;location;lat;lon;timestamp;P1;durP1;ratioP1;P2;durP2;ratioP2
30647;SDS011;17683;53.360;9.736;2023-07-20T00:00:06;1.45;;;0.90;;
30647;SDS011;17683;53.360;9.736;2023-07-20T00:02:32;1.50;;;0.82;;
30647;SDS011;17683;53.360;9.736;2023-07-20T00:04:58;1.90;;;0.95;;
30647;SDS011;17683;53.360;9.736;2023-07-20T00:07:23;0.80;;;0.80;;
30647;SDS011;17683;53.360;9.736;2023-07-20T00:09:49;1.20;;;1.10;;
30647;SDS011;17683;53.360;9.736;2023-07-20T00:12:15;1.33;;;1.23;;
30647;SDS011;17683;53.360;9.736;2023-07-20T00:14:41;1.52;;;0.98;;
30647;SDS011;17683;53.360;9.736;2023-07-20T00:17:06;3.17;;;1.80;;
30647;SDS011;17683;53.360;9.736;2023-07-20T00:19:32;1.45;;;1.33;;
30647;SDS011;17683;53.360;9.736;2023-07-20T00:21:58;1.67;;;1.20;;
30647;SDS011;17683;53.360;9.736;2023-07-20T00:24:24;1.05;;;1.00;;
30647;SDS011;17683;53.360;9.736;2023-07-20T00:26:49;1.58;;;1.20;;
30647;SDS011;17683;53.360;9.736;2023-07-20T00:29:15;1.25;;;1.10;;
30647;SDS011;17683;53.360;9.736;2023-07-20T00:31:41;1.38;;;1.27;;
30647;SDS011;17683;53.360;9.736;2023-07-20T00:34:08;1.17;;;1.00;;
30647;SDS011;17683;53.360;9.736;2023-07-20T00:36:34;3.83;;;1.30;;
30647;SDS011;17683;53.360;9.736;2023-07-20T00:39:00;3.17;;;1.50;;
30647;SDS011;17683;53.360;9.736;2023-07-20T00:41:25;1.88;;;1.30;;
30647;SDS011;17683;53.360;9.736;2023-07-20T00:43:54;1.98;;;1.42;;
30647;SDS011;17683;53.360;9.736;2023-07-20T00:46:22;2.30;;;1.20;;
30647;SDS011;17683;53.360;9.736;2023-07-20T00:48:49;1.42;;;1.33;;
30647;SDS011;17683;53.360;9.736;2023-07-20T00:51:15;2.47;;;1.80;;
30647;SDS011;17683;53.360;9.736;2023-07-20T00:53:41;4.72;;;2.03;;
30647;SDS011;17683;53.360;9.736;2023-07-20T00:56:07;2.10;;;1.90;;
30647;SDS011;17683;53.360;9.736;2023-07-20T00:58:34;2.20;;;2.00;;
30647;SDS011;17683;53.360;9.736;2023-07-20T01:01:00;1.85;;;1.75;;
30647;SDS011;17683;53.360;9.736;2023-07-20T01:03:26;2.78;;;2.10;;
30647;SDS011;17683;53.360;9.736;2023-07-20T01:08:50;3.80;;;1.97;;
30647;SDS011;17683;53.360;9.736;2023-07-20T01:11:23;3.08;;;2.67;;
30647;SDS011;17683;53.360;9.736;2023-07-20T01:13:57;1.83;;;1.73;;
30647;SDS011;17683;53.360;9.736;2023-07-20T01:16:23;2.05;;;1.90;;
30647;SDS011;17683;53.360;9.736;2023-07-20T01:18:49;2.58;;;2.10;;
30647;SDS011;17683;53.360;9.736;2023-07-20T01:21:18;3.97;;;3.08;;
30647;SDS011;17683;53.360;9.736;2023-07-20T01:29:33;3.70;;;2.83;;
30647;SDS011;17683;53.360;9.736;2023-07-20T01:32:19;3.25;;;2.67;;
30647;SDS011;17683;53.360;9.736;2023-07-20T01:34:48;3.72;;;2.88;;
30647;SDS011;17683;53.360;9.736;2023-07-20T01:37:17;2.78;;;2.58;;
30647;SDS011;17683;53.360;9.736;2023-07-20T01:39:45;3.60;;;2.70;;
30647;SDS011;17683;53.360;9.736;2023-07-20T01:42:11;6.53;;;3.40;;
30647;SDS011;17683;53.360;9.736;2023-07-20T01:44:39;4.82;;;3.00;;
30647;SDS011;17683;53.360;9.736;2023-07-20T01:47:04;3.80;;;3.00;;
30647;SDS011;17683;53.360;9.736;2023-07-20T01:49:30;3.97;;;3.25;;
30647;SDS011;17683;53.360;9.736;2023-07-20T01:51:56;4.38;;;3.97;;
30647;SDS011;17683;53.360;9.736;2023-07-20T01:54:21;4.53;;;3.58;;
30647;SDS011;17683;53.360;9.736;2023-07-20T01:56:47;4.05;;;3.30;;
30647;SDS011;17683;53.360;9.736;2023-07-20T01:59:13;4.03;;;3.58;;
30647;SDS011;17683;53.360;9.736;2023-07-20T02:01:38;4.05;;;3.75;;
30647;SDS011;17683;53.360;9.736;2023-07-20T02:04:04;4.63;;;3.05;;
30647;SDS011;17683;53.360;9.736;2023-07-20T02:06:30;3.90;;;3.42;;
30647;SDS011;17683;53.360;9.736;2023-07-20T02:08:56;4.18;;;3.28;;
30647;SDS011;17683;53.360;9.736;2023-07-20T02:11:22;3.90;;;2.75;;
30647;SDS011;17683;53.360;9.736;2023-07-20T02:13:47;4.13;;;2.83;;
30647;SDS011;17683;53.360;9.736;2023-07-20T02:16:13;3.53;;;2.88;;
30647;SDS011;17683;53.360;9.736;2023-07-20T02:18:39;4.25;;;2.67;;
30647;SDS011;17683;53.360;9.736;2023-07-20T02:21:04;4.45;;;2.80;;
30647;SDS011;17683;53.360;9.736;2023-07-20T02:23:30;4.25;;;2.40;;
30647;SDS011;17683;53.360;9.736;2023-07-20T02:25:56;3.42;;;2.67;;
30647;SDS011;17683;53.360;9.736;2023-07-20T02:28:22;3.33;;;2.42;;
30647;SDS011;17683;53.360;9.736;2023-07-20T02:30:48;2.38;;;2.17;;
30647;SDS011;17683;53.360;9.736;2023-07-20T02:33:14;2.65;;;2.38;;
30647;SDS011;17683;53.360;9.736;2023-07-20T02:35:40;2.28;;;2.08;;
30647;SDS011;17683;53.360;9.736;2023-07-20T02:38:06;2.70;;;2.33;;
30647;SDS011;17683;53.360;9.736;2023-07-20T02:40:32;2.80;;;2.50;;
30647;SDS011;17683;53.360;9.736;2023-07-20T02:42:57;2.83;;;2.58;;
30647;SDS011;17683;53.360;9.736;2023-07-20T02:45:23;3.65;;;2.30;;
30647;SDS011;17683;53.360;9.736;2023-07-20T02:47:48;2.97;;;2.67;;
30647;SDS011;17683;53.360;9.736;2023-07-20T02:50:14;3.03;;;2.20;;
30647;SDS011;17683;53.360;9.736;2023-07-20T02:52:40;2.42;;;2.22;;
30647;SDS011;17683;53.360;9.736;2023-07-20T02:55:06;2.97;;;2.67;;
30647;SDS011;17683;53.360;9.736;2023-07-20T02:57:32;2.55;;;2.35;;
30647;SDS011;17683;53.360;9.736;2023-07-20T02:59:57;3.97;;;2.13;;
30647;SDS011;17683;53.360;9.736;2023-07-20T03:02:23;2.67;;;2.47;;
30647;SDS011;17683;53.360;9.736;2023-07-20T03:04:48;2.85;;;2.35;;
30647;SDS011;17683;53.360;9.736;2023-07-20T03:07:14;4.53;;;2.45;;
30647;SDS011;17683;53.360;9.736;2023-07-20T03:09:40;2.95;;;2.47;;
30647;SDS011;17683;53.360;9.736;2023-07-20T03:12:06;3.42;;;2.88;;
30647;SDS011;17683;53.360;9.736;2023-07-20T03:14:32;4.05;;;2.30;;
30647;SDS011;17683;53.360;9.736;2023-07-20T03:16:58;3.03;;;2.20;;
30647;SDS011;17683;53.360;9.736;2023-07-20T03:19:23;2.20;;;2.00;;
30647;SDS011;17683;53.360;9.736;2023-07-20T03:21:49;2.60;;;2.40;;
30647;SDS011;17683;53.360;9.736;2023-07-20T03:24:15;3.60;;;2.42;;
30647;SDS011;17683;53.360;9.736;2023-07-20T03:26:41;4.60;;;1.88;;
30647;SDS011;17683;53.360;9.736;2023-07-20T03:29:06;3.78;;;2.20;;
30647;SDS011;17683;53.360;9.736;2023-07-20T03:31:33;2.80;;;2.60;;
30647;SDS011;17683;53.360;9.736;2023-07-20T03:33:59;5.40;;;2.60;;
30647;SDS011;17683;53.360;9.736;2023-07-20T03:36:24;3.88;;;2.72;;
30647;SDS011;17683;53.360;9.736;2023-07-20T03:38:50;3.13;;;2.60;;
30647;SDS011;17683;53.360;9.736;2023-07-20T03:41:16;2.90;;;2.28;;
30647;SDS011;17683;53.360;9.736;2023-07-20T03:43:41;4.20;;;2.92;;
30647;SDS011;17683;53.360;9.736;2023-07-20T03:46:07;2.63;;;2.42;;
30647;SDS011;17683;53.360;9.736;2023-07-20T03:48:33;3.03;;;2.55;;
30647;SDS011;17683;53.360;9.736;2023-07-20T03:50:59;3.50;;;1.95;;
30647;SDS011;17683;53.360;9.736;2023-07-20T03:53:27;5.18;;;3.10;;
30647;SDS011;17683;53.360;9.736;2023-07-20T03:55:53;4.05;;;2.45;;
30647;SDS011;17683;53.360;9.736;2023-07-20T03:58:19;3.20;;;2.88;;
30647;SDS011;17683;53.360;9.736;2023-07-20T04:00:46;3.35;;;3.08;;
30647;SDS011;17683;53.360;9.736;2023-07-20T04:03:16;3.45;;;3.13;;
30647;SDS011;17683;53.360;9.736;2023-07-20T04:05:45;5.15;;;3.78;;
30647;SDS011;17683;53.360;9.736;2023-07-20T04:08:11;3.50;;;3.20;;
30647;SDS011;17683;53.360;9.736;2023-07-20T04:10:37;5.15;;;3.53;;
30647;SDS011;17683;53.360;9.736;2023-07-20T04:13:03;4.75;;;3.78;;
30647;SDS011;17683;53.360;9.736;2023-07-20T04:15:29;4.45;;;4.05;;
30647;SDS011;17683;53.360;9.736;2023-07-20T04:17:55;4.47;;;3.40;;
30647;SDS011;17683;53.360;9.736;2023-07-20T04:20:22;5.70;;;3.70;;
30647;SDS011;17683;53.360;9.736;2023-07-20T04:22:48;3.75;;;3.35;;
30647;SDS011;17683;53.360;9.736;2023-07-20T04:25:14;5.60;;;3.65;;
30647;SDS011;17683;53.360;9.736;2023-07-20T04:27:40;4.38;;;3.97;;
30647;SDS011;17683;53.360;9.736;2023-07-20T04:30:07;3.60;;;3.30;;
30647;SDS011;17683;53.360;9.736;2023-07-20T04:32:34;4.32;;;3.75;;
30647;SDS011;17683;53.360;9.736;2023-07-20T04:34:59;3.60;;;3.30;;
30647;SDS011;17683;53.360;9.736;2023-07-20T04:37:25;4.10;;;3.70;;
30647;SDS011;17683;53.360;9.736;2023-07-20T04:39:51;3.50;;;3.20;;
30647;SDS011;17683;53.360;9.736;2023-07-20T04:42:16;5.93;;;3.72;;
30647;SDS011;17683;53.360;9.736;2023-07-20T04:44:42;3.20;;;2.90;;
30647;SDS011;17683;53.360;9.736;2023-07-20T04:47:08;4.30;;;3.90;;
30647;SDS011;17683;53.360;9.736;2023-07-20T04:49:34;5.72;;;3.92;;
30647;SDS011;17683;53.360;9.736;2023-07-20T04:52:00;3.90;;;3.60;;
30647;SDS011;17683;53.360;9.736;2023-07-20T04:54:25;5.85;;;4.18;;
30647;SDS011;17683;53.360;9.736;2023-07-20T04:56:52;4.03;;;3.63;;
30647;SDS011;17683;53.360;9.736;2023-07-20T04:59:18;4.47;;;4.00;;
30647;SDS011;17683;53.360;9.736;2023-07-20T05:01:44;4.13;;;3.58;;
30647;SDS011;17683;53.360;9.736;2023-07-20T05:04:10;4.32;;;3.30;;
30647;SDS011;17683;53.360;9.736;2023-07-20T05:06:35;3.78;;;3.47;;
30647;SDS011;17683;53.360;9.736;2023-07-20T05:09:01;4.38;;;3.90;;
30647;SDS011;17683;53.360;9.736;2023-07-20T05:11:27;3.25;;;2.95;;
30647;SDS011;17683;53.360;9.736;2023-07-20T05:13:52;4.10;;;3.80;;
30647;SDS011;17683;53.360;9.736;2023-07-20T05:16:18;3.45;;;3.15;;
30647;SDS011;17683;53.360;9.736;2023-07-20T05:18:44;4.45;;;3.00;;
30647;SDS011;17683;53.360;9.736;2023-07-20T05:21:10;4.60;;;3.22;;
30647;SDS011;17683;53.360;9.736;2023-07-20T05:23:35;3.70;;;2.50;;
30647;SDS011;17683;53.360;9.736;2023-07-20T05:26:01;5.30;;;3.00;;
30647;SDS011;17683;53.360;9.736;2023-07-20T05:28:27;3.60;;;3.03;;
30647;SDS011;17683;53.360;9.736;2023-07-20T05:30:53;3.15;;;2.85;;
30647;SDS011;17683;53.360;9.736;2023-07-20T05:33:19;7.38;;;4.35;;
30647;SDS011;17683;53.360;9.736;2023-07-20T05:35:45;5.13;;;3.20;;
30647;SDS011;17683;53.360;9.736;2023-07-20T05:38:11;3.40;;;3.10;;
30647;SDS011;17683;53.360;9.736;2023-07-20T05:40:37;11.65;;;3.72;;
30647;SDS011;17683;53.360;9.736;2023-07-20T05:43:05;6.28;;;3.70;;
30647;SDS011;17683;53.360;9.736;2023-07-20T05:45:31;4.63;;;2.95;;
30647;SDS011;17683;53.360;9.736;2023-07-20T05:47:56;4.10;;;3.10;;
30647;SDS011;17683;53.360;9.736;2023-07-20T05:50:22;5.63;;;3.30;;
30647;SDS011;17683;53.360;9.736;2023-07-20T05:52:48;4.10;;;2.97;;
30647;SDS011;17683;53.360;9.736;2023-07-20T05:55:13;5.68;;;3.00;;
30647;SDS011;17683;53.360;9.736;2023-07-20T05:57:39;4.05;;;3.58;;
30647;SDS011;17683;53.360;9.736;2023-07-20T06:00:07;3.13;;;2.10;;
30647;SDS011;17683;53.360;9.736;2023-07-20T06:02:33;2.60;;;2.40;;
30647;SDS011;17683;53.360;9.736;2023-07-20T06:04:59;2.88;;;2.13;;
30647;SDS011;17683;53.360;9.736;2023-07-20T06:07:25;3.03;;;2.22;;
30647;SDS011;17683;53.360;9.736;2023-07-20T06:09:51;3.72;;;1.90;;
30647;SDS011;17683;53.360;9.736;2023-07-20T06:12:17;3.13;;;2.25;;
30647;SDS011;17683;53.360;9.736;2023-07-20T06:14:42;1.90;;;1.70;;
30647;SDS011;17683;53.360;9.736;2023-07-20T06:17:08;4.80;;;1.90;;
30647;SDS011;17683;53.360;9.736;2023-07-20T06:19:34;2.80;;;1.95;;
30647;SDS011;17683;53.360;9.736;2023-07-20T06:22:00;1.77;;;1.67;;
30647;SDS011;17683;53.360;9.736;2023-07-20T06:24:26;2.53;;;1.98;;
30647;SDS011;17683;53.360;9.736;2023-07-20T06:26:52;2.90;;;2.10;;
30647;SDS011;17683;53.360;9.736;2023-07-20T06:29:17;4.32;;;1.50;;
30647;SDS011;17683;53.360;9.736;2023-07-20T06:31:44;6.55;;;2.28;;
30647;SDS011;17683;53.360;9.736;2023-07-20T06:34:10;2.40;;;1.83;;
30647;SDS011;17683;53.360;9.736;2023-07-20T06:36:35;4.93;;;1.10;;
30647;SDS011;17683;53.360;9.736;2023-07-20T06:39:01;2.45;;;1.23;;
30647;SDS011;17683;53.360;9.736;2023-07-20T06:41:27;2.95;;;1.20;;
30647;SDS011;17683;53.360;9.736;2023-07-20T06:43:53;4.63;;;1.30;;
30647;SDS011;17683;53.360;9.736;2023-07-20T06:46:23;3.05;;;1.40;;
30647;SDS011;17683;53.360;9.736;2023-07-20T06:48:52;3.55;;;1.20;;
30647;SDS011;17683;53.360;9.736;2023-07-20T06:51:18;2.47;;;1.33;;
30647;SDS011;17683;53.360;9.736;2023-07-20T06:53:45;6.03;;;1.98;;
30647;SDS011;17683;53.360;9.736;2023-07-20T06:56:11;1.38;;;1.08;;
30647;SDS011;17683;53.360;9.736;2023-07-20T06:58:36;1.27;;;0.95;;
30647;SDS011;17683;53.360;9.736;2023-07-20T07:01:05;6.65;;;1.20;;
30647;SDS011;17683;53.360;9.736;2023-07-20T07:03:32;2.13;;;1.40;;
30647;SDS011;17683;53.360;9.736;2023-07-20T07:05:58;3.50;;;1.50;;
30647;SDS011;17683;53.360;9.736;2023-07-20T07:08:24;6.63;;;1.40;;
30647;SDS011;17683;53.360;9.736;2023-07-20T07:10:50;3.13;;;1.35;;
30647;SDS011;17683;53.360;9.736;2023-07-20T07:13:16;4.15;;;1.15;;
30647;SDS011;17683;53.360;9.736;2023-07-20T07:15:42;5.30;;;1.20;;
30647;SDS011;17683;53.360;9.736;2023-07-20T07:18:07;2.47;;;0.80;;
30647;SDS011;17683;53.360;9.736;2023-07-20T07:20:33;1.98;;;1.00;;
30647;SDS011;17683;53.360;9.736;2023-07-20T07:22:59;3.10;;;1.02;;
30647;SDS011;17683;53.360;9.736;2023-07-20T07:25:25;3.67;;;1.20;;
30647;SDS011;17683;53.360;9.736;2023-07-20T07:27:52;10.07;;;1.60;;
30647;SDS011;17683;53.360;9.736;2023-07-20T07:30:18;4.97;;;1.23;;
30647;SDS011;17683;53.360;9.736;2023-07-20T07:32:44;8.18;;;1.80;;
30647;SDS011;17683;53.360;9.736;2023-07-20T07:35:10;2.95;;;1.30;;
30647;SDS011;17683;53.360;9.736;2023-07-20T07:37:36;1.38;;;1.13;;
30647;SDS011;17683;53.360;9.736;2023-07-20T07:40:02;4.57;;;1.35;;
30647;SDS011;17683;53.360;9.736;2023-07-20T07:42:29;3.55;;;1.08;;
30647;SDS011;17683;53.360;9.736;2023-07-20T07:44:55;5.13;;;2.13;;
30647;SDS011;17683;53.360;9.736;2023-07-20T07:47:20;3.45;;;1.05;;
30647;SDS011;17683;53.360;9.736;2023-07-20T07:49:46;2.17;;;1.00;;
30647;SDS011;17683;53.360;9.736;2023-07-20T07:52:12;3.25;;;0.95;;
30647;SDS011;17683;53.360;9.736;2023-07-20T07:54:39;5.95;;;2.10;;
30647;SDS011;17683;53.360;9.736;2023-07-20T07:57:05;2.63;;;1.50;;
30647;SDS011;17683;53.360;9.736;2023-07-20T07:59:31;1.05;;;0.95;;
30647;SDS011;17683;53.360;9.736;2023-07-20T08:02:01;5.53;;;1.30;;
30647;SDS011;17683;53.360;9.736;2023-07-20T08:04:29;3.72;;;1.27;;
30647;SDS011;17683;53.360;9.736;2023-07-20T08:06:55;3.63;;;1.25;;
30647;SDS011;17683;53.360;9.736;2023-07-20T08:09:21;1.48;;;1.00;;
30647;SDS011;17683;53.360;9.736;2023-07-20T08:11:46;2.58;;;1.27;;
30647;SDS011;17683;53.360;9.736;2023-07-20T08:14:13;5.72;;;1.58;;
30647;SDS011;17683;53.360;9.736;2023-07-20T08:16:39;4.22;;;1.92;;
30647;SDS011;17683;53.360;9.736;2023-07-20T08:19:04;1.67;;;1.10;;
30647;SDS011;17683;53.360;9.736;2023-07-20T08:21:30;2.30;;;1.60;;
30647;SDS011;17683;53.360;9.736;2023-07-20T08:23:56;4.95;;;1.60;;
30647;SDS011;17683;53.360;9.736;2023-07-20T08:26:23;1.98;;;1.30;;
30647;SDS011;17683;53.360;9.736;2023-07-20T08:28:49;3.85;;;1.65;;
30647;SDS011;17683;53.360;9.736;2023-07-20T08:31:14;8.40;;;2.08;;
30647;SDS011;17683;53.360;9.736;2023-07-20T08:33:40;4.25;;;1.35;;
30647;SDS011;17683;53.360;9.736;2023-07-20T08:36:06;5.10;;;2.00;;
30647;SDS011;17683;53.360;9.736;2023-07-20T08:38:32;4.72;;;1.65;;
30647;SDS011;17683;53.360;9.736;2023-07-20T08:40:58;3.95;;;1.67;;
30647;SDS011;17683;53.360;9.736;2023-07-20T08:43:26;2.85;;;1.50;;
30647;SDS011;17683;53.360;9.736;2023-07-20T08:45:56;2.65;;;1.55;;
30647;SDS011;17683;53.360;9.736;2023-07-20T08:48:22;5.68;;;1.48;;
30647;SDS011;17683;53.360;9.736;2023-07-20T08:50:52;5.75;;;2.42;;
30647;SDS011;17683;53.360;9.736;2023-07-20T08:53:22;6.82;;;2.63;;
30647;SDS011;17683;53.360;9.736;2023-07-20T08:55:48;4.72;;;1.70;;
30647;SDS011;17683;53.360;9.736;2023-07-20T08:58:15;7.70;;;2.22;;
30647;SDS011;17683;53.360;9.736;2023-07-20T09:00:42;5.50;;;2.00;;
30647;SDS011;17683;53.360;9.736;2023-07-20T09:03:08;3.75;;;2.10;;
30647;SDS011;17683;53.360;9.736;2023-07-20T09:05:36;4.25;;;1.75;;
30647;SDS011;17683;53.360;9.736;2023-07-20T09:08:02;4.82;;;2.33;;
30647;SDS011;17683;53.360;9.736;2023-07-20T09:10:30;8.02;;;2.47;;
30647;SDS011;17683;53.360;9.736;2023-07-20T09:12:56;6.10;;;2.40;;
30647;SDS011;17683;53.360;9.736;2023-07-20T09:15:22;4.80;;;2.15;;
30647;SDS011;17683;53.360;9.736;2023-07-20T09:17:48;9.43;;;2.40;;
30647;SDS011;17683;53.360;9.736;2023-07-20T09:20:16;5.28;;;1.90;;
30647;SDS011;17683;53.360;9.736;2023-07-20T09:22:43;4.65;;;2.28;;
30647;SDS011;17683;53.360;9.736;2023-07-20T09:25:13;3.38;;;1.85;;
30647;SDS011;17683;53.360;9.736;2023-07-20T09:27:46;8.70;;;2.00;;
30647;SDS011;17683;53.360;9.736;2023-07-20T09:30:15;3.03;;;1.60;;
30647;SDS011;17683;53.360;9.736;2023-07-20T09:32:46;7.15;;;1.83;;
30647;SDS011;17683;53.360;9.736;2023-07-20T09:35:16;6.03;;;1.67;;
30647;SDS011;17683;53.360;9.736;2023-07-20T09:37:49;5.82;;;1.33;;
30647;SDS011;17683;53.360;9.736;2023-07-20T09:40:26;5.03;;;1.33;;
30647;SDS011;17683;53.360;9.736;2023-07-20T09:42:52;3.95;;;1.63;;
30647;SDS011;17683;53.360;9.736;2023-07-20T09:45:34;6.85;;;1.65;;
30647;SDS011;17683;53.360;9.736;2023-07-20T09:48:04;6.93;;;2.00;;
30647;SDS011;17683;53.360;9.736;2023-07-20T09:50:34;3.63;;;1.15;;
30647;SDS011;17683;53.360;9.736;2023-07-20T09:53:05;5.32;;;1.15;;
30647;SDS011;17683;53.360;9.736;2023-07-20T09:55:32;4.13;;;1.58;;
30647;SDS011;17683;53.360;9.736;2023-07-20T09:57:59;3.33;;;1.60;;
30647;SDS011;17683;53.360;9.736;2023-07-20T10:00:25;3.65;;;1.63;;
30647;SDS011;17683;53.360;9.736;2023-07-20T10:02:51;2.20;;;1.08;;
30647;SDS011;17683;53.360;9.736;2023-07-20T10:05:19;4.75;;;1.30;;
30647;SDS011;17683;53.360;9.736;2023-07-20T10:07:48;5.22;;;1.60;;
30647;SDS011;17683;53.360;9.736;2023-07-20T10:10:16;4.93;;;1.25;;
30647;SDS011;17683;53.360;9.736;2023-07-20T10:12:44;5.18;;;1.67;;
30647;SDS011;17683;53.360;9.736;2023-07-20T10:15:24;4.50;;;1.55;;
30647;SDS011;17683;53.360;9.736;2023-07-20T10:18:02;4.13;;;1.50;;
30647;SDS011;17683;53.360;9.736;2023-07-20T10:20:35;4.80;;;2.15;;
30647;SDS011;17683;53.360;9.736;2023-07-20T10:23:04;6.63;;;1.95;;
30647;SDS011;17683;53.360;9.736;2023-07-20T10:25:31;4.35;;;1.83;;
30647;SDS011;17683;53.360;9.736;2023-07-20T10:27:58;5.88;;;1.85;;
30647;SDS011;17683;53.360;9.736;2023-07-20T10:30:25;6.55;;;1.50;;
30647;SDS011;17683;53.360;9.736;2023-07-20T10:32:51;8.68;;;1.73;;
30647;SDS011;17683;53.360;9.736;2023-07-20T10:35:18;11.82;;;2.45;;
30647;SDS011;17683;53.360;9.736;2023-07-20T10:40:24;5.82;;;2.05;;
30647;SDS011;17683;53.360;9.736;2023-07-20T10:43:05;5.55;;;1.45;;
30647;SDS011;17683;53.360;9.736;2023-07-20T10:45:51;7.43;;;1.70;;
30647;SDS011;17683;53.360;9.736;2023-07-20T10:48:19;6.50;;;1.75;;
30647;SDS011;17683;53.360;9.736;2023-07-20T10:53:45;4.63;;;1.30;;
30647;SDS011;17683;53.360;9.736;2023-07-20T10:56:13;6.22;;;1.45;;
30647;SDS011;17683;53.360;9.736;2023-07-20T10:58:44;3.70;;;1.13;;
30647;SDS011;17683;53.360;9.736;2023-07-20T11:01:13;5.70;;;1.90;;
30647;SDS011;17683;53.360;9.736;2023-07-20T11:03:40;4.00;;;1.38;;
30647;SDS011;17683;53.360;9.736;2023-07-20T11:11:40;2.72;;;1.17;;
30647;SDS011;17683;53.360;9.736;2023-07-20T11:14:08;4.93;;;1.42;;
30647;SDS011;17683;53.360;9.736;2023-07-20T11:16:39;4.68;;;1.30;;
30647;SDS011;17683;53.360;9.736;2023-07-20T11:19:22;4.30;;;1.30;;
30647;SDS011;17683;53.360;9.736;2023-07-20T11:21:58;8.23;;;1.80;;
30647;SDS011;17683;53.360;9.736;2023-07-20T11:24:24;6.53;;;1.85;;
30647;SDS011;17683;53.360;9.736;2023-07-20T11:26:50;3.15;;;1.67;;
30647;SDS011;17683;53.360;9.736;2023-07-20T11:29:18;2.45;;;1.20;;
30647;SDS011;17683;53.360;9.736;2023-07-20T11:31:46;2.78;;;1.33;;
30647;SDS011;17683;53.360;9.736;2023-07-20T11:34:13;5.85;;;1.73;;
30647;SDS011;17683;53.360;9.736;2023-07-20T11:36:43;5.28;;;1.48;;
30647;SDS011;17683;53.360;9.736;2023-07-20T11:39:11;2.53;;;1.23;;
30647;SDS011;17683;53.360;9.736;2023-07-20T11:41:37;5.70;;;0.98;;
30647;SDS011;17683;53.360;9.736;2023-07-20T11:44:05;11.80;;;1.52;;
30647;SDS011;17683;53.360;9.736;2023-07-20T11:46:37;2.25;;;1.15;;
30647;SDS011;17683;53.360;9.736;2023-07-20T11:49:05;4.53;;;1.10;;
30647;SDS011;17683;53.360;9.736;2023-07-20T11:51:31;3.67;;;1.10;;
30647;SDS011;17683;53.360;9.736;2023-07-20T11:53:57;3.58;;;1.17;;
30647;SDS011;17683;53.360;9.736;2023-07-20T11:56:24;2.65;;;0.95;;
30647;SDS011;17683;53.360;9.736;2023-07-20T11:58:53;4.35;;;1.35;;
30647;SDS011;17683;53.360;9.736;2023-07-20T12:01:21;4.75;;;1.13;;
30647;SDS011;17683;53.360;9.736;2023-07-20T12:03:48;3.58;;;1.10;;
30647;SDS011;17683;53.360;9.736;2023-07-20T12:06:14;3.55;;;1.30;;
30647;SDS011;17683;53.360;9.736;2023-07-20T12:08:44;3.35;;;1.20;;
30647;SDS011;17683;53.360;9.736;2023-07-20T12:11:10;3.60;;;0.90;;
30647;SDS011;17683;53.360;9.736;2023-07-20T12:13:41;4.97;;;1.52;;
30647;SDS011;17683;53.360;9.736;2023-07-20T12:16:15;3.65;;;1.15;;
30647;SDS011;17683;53.360;9.736;2023-07-20T12:18:45;2.83;;;1.30;;
30647;SDS011;17683;53.360;9.736;2023-07-20T12:21:10;2.70;;;1.40;;
30647;SDS011;17683;53.360;9.736;2023-07-20T12:23:39;2.80;;;0.93;;
30647;SDS011;17683;53.360;9.736;2023-07-20T12:26:09;3.40;;;1.35;;
30647;SDS011;17683;53.360;9.736;2023-07-20T12:28:38;4.18;;;1.10;;
30647;SDS011;17683;53.360;9.736;2023-07-20T12:31:07;4.15;;;1.10;;
30647;SDS011;17683;53.360;9.736;2023-07-20T12:33:34;2.72;;;0.82;;
30647;SDS011;17683;53.360;9.736;2023-07-20T12:36:01;1.60;;;0.95;;
30647;SDS011;17683;53.360;9.736;2023-07-20T12:38:27;1.27;;;0.70;;
30647;SDS011;17683;53.360;9.736;2023-07-20T12:40:53;4.18;;;0.90;;
30647;SDS011;17683;53.360;9.736;2023-07-20T12:43:23;3.75;;;0.90;;
30647;SDS011;17683;53.360;9.736;2023-07-20T12:45:49;3.65;;;0.80;;
30647;SDS011;17683;53.360;9.736;2023-07-20T12:48:15;4.68;;;1.20;;
30647;SDS011;17683;53.360;9.736;2023-07-20T12:50:40;2.53;;;0.70;;
30647;SDS011;17683;53.360;9.736;2023-07-20T12:53:06;2.55;;;1.00;;
30647;SDS011;17683;53.360;9.736;2023-07-20T12:55:32;2.25;;;0.70;;
30647;SDS011;17683;53.360;9.736;2023-07-20T12:57:57;5.00;;;1.08;;
30647;SDS011;17683;53.360;9.736;2023-07-20T13:00:23;2.60;;;0.90;;
30647;SDS011;17683;53.360;9.736;2023-07-20T13:02:49;2.78;;;0.75;;
30647;SDS011;17683;53.360;9.736;2023-07-20T13:05:15;3.55;;;1.00;;
30647;SDS011;17683;53.360;9.736;2023-07-20T13:07:41;2.97;;;0.60;;
30647;SDS011;17683;53.360;9.736;2023-07-20T13:10:07;3.67;;;0.95;;
30647;SDS011;17683;53.360;9.736;2023-07-20T13:12:35;5.15;;;1.10;;
30647;SDS011;17683;53.360;9.736;2023-07-20T13:15:05;2.70;;;0.88;;
30647;SDS011;17683;53.360;9.736;2023-07-20T13:17:32;2.47;;;1.17;;
30647;SDS011;17683;53.360;9.736;2023-07-20T13:20:05;3.15;;;0.80;;
30647;SDS011;17683;53.360;9.736;2023-07-20T13:22:33;2.65;;;0.60;;
30647;SDS011;17683;53.360;9.736;2023-07-20T13:24:59;4.90;;;0.90;;
30647;SDS011;17683;53.360;9.736;2023-07-20T13:27:25;1.90;;;0.82;;
30647;SDS011;17683;53.360;9.736;2023-07-20T13:29:53;3.65;;;1.15;;
30647;SDS011;17683;53.360;9.736;2023-07-20T13:32:19;3.60;;;1.17;;
30647;SDS011;17683;53.360;9.736;2023-07-20T13:34:44;2.33;;;1.08;;
30647;SDS011;17683;53.360;9.736;2023-07-20T13:37:11;4.60;;;1.45;;
30647;SDS011;17683;53.360;9.736;2023-07-20T13:39:37;2.53;;;1.20;;
30647;SDS011;17683;53.360;9.736;2023-07-20T13:42:04;3.72;;;1.20;;
30647;SDS011;17683;53.360;9.736;2023-07-20T13:44:32;4.05;;;1.30;;
30647;SDS011;17683;53.360;9.736;2023-07-20T13:46:59;4.88;;;1.27;;
30647;SDS011;17683;53.360;9.736;2023-07-20T13:49:25;4.25;;;1.23;;
30647;SDS011;17683;53.360;9.736;2023-07-20T13:51:51;4.70;;;1.05;;
30647;SDS011;17683;53.360;9.736;2023-07-20T13:54:17;3.58;;;1.00;;
30647;SDS011;17683;53.360;9.736;2023-07-20T13:56:42;2.30;;;0.98;;
30647;SDS011;17683;53.360;9.736;2023-07-20T13:59:08;4.85;;;1.67;;
30647;SDS011;17683;53.360;9.736;2023-07-20T14:01:33;2.08;;;0.90;;
30647;SDS011;17683;53.360;9.736;2023-07-20T14:04:00;1.70;;;0.80;;
30647;SDS011;17683;53.360;9.736;2023-07-20T14:06:29;1.35;;;0.88;;
30647;SDS011;17683;53.360;9.736;2023-07-20T14:08:55;1.50;;;0.93;;
30647;SDS011;17683;53.360;9.736;2023-07-20T14:11:22;2.00;;;0.80;;
30647;SDS011;17683;53.360;9.736;2023-07-20T14:13:49;3.67;;;1.00;;
30647;SDS011;17683;53.360;9.736;2023-07-20T14:16:15;3.88;;;0.85;;
30647;SDS011;17683;53.360;9.736;2023-07-20T14:18:41;2.92;;;0.95;;
30647;SDS011;17683;53.360;9.736;2023-07-20T14:21:07;2.60;;;0.93;;
30647;SDS011;17683;53.360;9.736;2023-07-20T14:23:33;4.55;;;1.10;;
30647;SDS011;17683;53.360;9.736;2023-07-20T14:25:59;3.17;;;1.23;;
30647;SDS011;17683;53.360;9.736;2023-07-20T14:28:25;3.90;;;0.80;;
30647;SDS011;17683;53.360;9.736;2023-07-20T14:30:50;2.72;;;1.20;;
30647;SDS011;17683;53.360;9.736;2023-07-20T14:33:16;4.70;;;0.98;;
30647;SDS011;17683;53.360;9.736;2023-07-20T14:35:42;1.40;;;0.60;;
30647;SDS011;17683;53.360;9.736;2023-07-20T14:38:07;3.25;;;1.95;;
30647;SDS011;17683;53.360;9.736;2023-07-20T14:40:33;2.35;;;1.00;;
30647;SDS011;17683;53.360;9.736;2023-07-20T14:42:59;5.68;;;0.95;;
30647;SDS011;17683;53.360;9.736;2023-07-20T14:45:26;2.85;;;1.67;;
30647;SDS011;17683;53.360;9.736;2023-07-20T14:47:52;2.67;;;1.08;;
30647;SDS011;17683;53.360;9.736;2023-07-20T14:50:19;3.20;;;1.20;;
30647;SDS011;17683;53.360;9.736;2023-07-20T14:52:45;2.70;;;1.15;;
30647;SDS011;17683;53.360;9.736;2023-07-20T14:55:11;4.35;;;1.00;;
30647;SDS011;17683;53.360;9.736;2023-07-20T14:57:37;4.63;;;1.27;;
30647;SDS011;17683;53.360;9.736;2023-07-20T15:00:03;4.10;;;1.00;;
30647;SDS011;17683;53.360;9.736;2023-07-20T15:02:35;3.60;;;1.10;;
30647;SDS011;17683;53.360;9.736;2023-07-20T15:05:02;4.47;;;1.25;;